Terminal Aerodrome Forecast
Issued by NWS

Home | Current Version | Previous Version | Text Only | Print | Product List | Glossary On
Versions: 1 2 3 4 5 6 7 8 9 10 11 12 13 14 15 16 17 18 19 20
000
FTUS43 KGRR 160945 AAA
TAFMKG
TAF AMD
KMKG 160945Z 1610/1706 06006KT 5SM -SN BR OVC040
     FM161200 01005KT 5SM -SN BR OVC025
     FM161600 35008KT 3SM -SN BR BKN035
     FM170100 34005KT P6SM OVC050=

USA.gov is the U.S. government's official web portal to all federal, state and local government web resources and services.